Palermo — V2IA7 — position and weather

sailwx.info

Track history (hours):
 
Tides and Currents Weather Stations Pressure Air Temp Water Temp Dewpoint Dewpoint Depression Visibility Wind Speed Wind Dir Waves Ship Positions

Palermo

Last reported at 2016-Sep-24 12:33 UTC. Time now 2016-Sep-27 15:37 UTC.
Position N 09°46' W 079°58'.

Length 118 m; draft 6.4 m.

Type: Cargo ship. MMSI: 304255000.

Date/timePositionNaut miles runAvg speedWind from/ knotsBaromVisibWave heightAir tempDewpointWater temp
2016-Sep-24 12:33N 09°46' W 079°58'2412.2
2016-Sep-24 10:33N 09°21' W 079°55'5 4.8
2016-Sep-24 09:33N 09°16' W 079°55'26 4.3
2016-Sep-24 03:32N 08°60' W 079°36'0 0.5
2016-Sep-24 02:28N 08°60' W 079°35'6 5.2
2016-Sep-24 01:24N 08°55' W 079°32'2 2.1
2016-Sep-24 00:29N 08°54' W 079°31'0 0.0
2016-Sep-23 19:23N 08°54' W 079°31'0 0.0
2016-Sep-23 17:11N 08°54' W 079°31'9 5.4
2016-Sep-23 15:34N 08°47' W 079°25'2210.1
2016-Sep-23 13:25N 08°25' W 079°22'  
2016-Sep-16 00:32N 26°34' W 116°38'  
Track history (hours):
 
Tides and Currents Weather Stations Pressure Air Temp Water Temp Dewpoint Dewpoint Depression Visibility Wind Speed Wind Dir Waves Ship Positions

Palermo

Last reported at 2016-Sep-24 12:33 UTC. Time now 2016-Sep-27 15:37 UTC.
Position N 09°46' W 079°58'.

Length 118 m; draft 6.4 m.

Type: Cargo ship. MMSI: 304255000.

Date/timePositionNaut miles runAvg speedWind from/ knotsBaromVisibWave heightAir tempDewpointWater temp
2016-Sep-24 12:33N 09°46' W 079°58'2412.2
2016-Sep-24 10:33N 09°21' W 079°55'5 4.8
2016-Sep-24 09:33N 09°16' W 079°55'26 4.3
2016-Sep-24 03:32N 08°60' W 079°36'0 0.5
2016-Sep-24 02:28N 08°60' W 079°35'6 5.2
2016-Sep-24 01:24N 08°55' W 079°32'2 2.1
2016-Sep-24 00:29N 08°54' W 079°31'0 0.0
2016-Sep-23 19:23N 08°54' W 079°31'0 0.0
2016-Sep-23 17:11N 08°54' W 079°31'9 5.4
2016-Sep-23 15:34N 08°47' W 079°25'2210.1
2016-Sep-23 13:25N 08°25' W 079°22'  
2016-Sep-16 00:32N 26°34' W 116°38'  

Dump ship's entire track history